createdAt,value
2022-10-01T00:03:05.958Z,100571.63
2022-10-01T00:08:10.780Z,100559.22
2022-10-01T00:13:13.483Z,100556.50
2022-10-01T00:18:16.193Z,100536.16
2022-10-01T00:23:20.300Z,100528.22
2022-10-01T00:28:23.115Z,100522.00
2022-10-01T00:33:26.454Z,100520.19
2022-10-01T00:38:31.932Z,100517.56
2022-10-01T00:43:37.616Z,100512.13
2022-10-01T00:48:45.286Z,100507.69
2022-10-01T00:53:49.436Z,100500.56
2022-10-01T00:58:54.176Z,100500.56
2022-10-01T01:03:58.490Z,100497.78
2022-10-01T01:09:03.417Z,100500.31
2022-10-01T01:14:16.103Z,100481.94
2022-10-01T01:19:29.165Z,100474.88
2022-10-01T01:24:45.060Z,100466.91
2022-10-01T01:29:53.618Z,100470.38
2022-10-01T01:35:02.748Z,100475.69
2022-10-01T01:40:11.380Z,100453.69
2022-10-01T01:45:19.721Z,100452.81
2022-10-01T01:50:25.139Z,100444.94
2022-10-01T01:55:31.935Z,100445.00
2022-10-01T02:00:36.592Z,100434.59
2022-10-01T02:05:53.382Z,100430.28
2022-10-01T02:11:21.553Z,100421.66
2022-10-01T02:16:34.350Z,100405.09
2022-10-01T02:21:42.845Z,100405.91
2022-10-01T02:26:49.475Z,100414.72
2022-10-01T02:31:55.730Z,100403.38
2022-10-01T02:37:02.266Z,100399.06
2022-10-01T02:42:06.580Z,100397.22
2022-10-01T02:47:15.818Z,100398.06
2022-10-01T02:52:26.455Z,100390.25
2022-10-01T02:57:29.891Z,100389.38
2022-10-01T03:02:34.104Z,100384.03
2022-10-01T03:07:37.133Z,100376.16
2022-10-01T03:12:42.858Z,100368.28
2022-10-01T03:17:47.302Z,100363.94
2022-10-01T03:22:50.005Z,100355.16
2022-10-01T03:27:52.815Z,100348.00
2022-10-01T03:32:56.937Z,100343.50
2022-10-01T03:37:59.634Z,100328.59
2022-10-01T03:43:02.325Z,100322.41
2022-10-01T03:48:06.458Z,100314.47
2022-10-01T03:53:09.174Z,100309.31
2022-10-01T03:58:11.856Z,100297.91
2022-10-01T04:03:16.581Z,100286.59
2022-10-01T04:08:24.098Z,100286.59
2022-10-01T04:13:27.015Z,100281.34
2022-10-01T04:18:31.162Z,100278.81
2022-10-01T04:23:34.326Z,100267.47
2022-10-01T04:28:37.120Z,100261.31
2022-10-01T04:33:41.232Z,100263.94
2022-10-01T04:38:43.948Z,100256.09
2022-10-01T04:43:46.634Z,100258.97
2022-10-01T04:48:50.823Z,100251.34
2022-10-01T04:53:53.569Z,100253.19
2022-10-01T04:58:56.349Z,100236.69
2022-10-01T05:04:00.523Z,100243.84
2022-10-01T05:09:03.362Z,100239.69
2022-10-01T05:14:06.221Z,100232.00
2022-10-01T05:19:10.443Z,100229.59
2022-10-01T05:24:13.138Z,100224.53
2022-10-01T05:29:15.840Z,100213.38
2022-10-01T05:34:19.900Z,100218.75
2022-10-01T05:39:22.599Z,100201.34
2022-10-01T05:44:26.098Z,100205.03
2022-10-01T05:49:30.165Z,100200.81
2022-10-01T05:54:32.842Z,100195.78
2022-10-01T05:59:35.625Z,100189.75
2022-10-01T06:04:41.310Z,100181.13
2022-10-01T06:09:44.906Z,100170.75
2022-10-01T06:14:47.774Z,100165.81
2022-10-01T06:19:52.456Z,100162.47
2022-10-01T06:24:56.791Z,100151.25
2022-10-01T06:29:59.550Z,100150.66
2022-10-01T06:35:03.661Z,100146.50
2022-10-01T06:40:07.724Z,100135.44
2022-10-01T06:45:11.206Z,100126.06
2022-10-01T06:50:15.321Z,100131.63
2022-10-01T06:55:18.447Z,100111.59
2022-10-01T07:00:21.215Z,100106.47
2022-10-01T07:05:26.177Z,100088.41
2022-10-01T07:10:28.922Z,100083.47
2022-10-01T07:15:31.632Z,100082.88
2022-10-01T07:20:39.533Z,100075.38
2022-10-01T07:25:43.878Z,100067.75
2022-10-01T07:30:48.544Z,100064.53
2022-10-01T07:35:52.629Z,100065.75
2022-10-01T07:40:55.618Z,100065.16
2022-10-01T07:46:00.066Z,100050.47
2022-10-01T07:51:04.370Z,100042.69
2022-10-01T07:56:07.288Z,100040.34
2022-10-01T08:01:10.518Z,100038.84
2022-10-01T08:06:15.102Z,100022.56
2022-10-01T08:11:18.350Z,100014.00
2022-10-01T08:16:21.109Z,100003.84
2022-10-01T08:21:25.883Z,99989.91
2022-10-01T08:26:28.611Z,99994.50
2022-10-01T08:31:31.686Z,99988.41
2022-10-01T08:36:37.800Z,99983.28
2022-10-01T08:41:54.038Z,99971.19
2022-10-01T08:47:04.861Z,99974.00
2022-10-01T08:52:19.849Z,99965.31
2022-10-01T08:57:26.456Z,99959.16
2022-10-01T09:02:31.531Z,99953.03
2022-10-01T09:07:48.502Z,99945.91
2022-10-01T09:13:06.395Z,99951.00
2022-10-01T09:18:19.282Z,99946.63
2022-10-01T09:23:28.409Z,99944.81
2022-10-01T09:28:33.244Z,99944.81
2022-10-01T09:33:38.773Z,99936.84
2022-10-01T09:38:44.803Z,99922.66
2022-10-01T09:43:47.844Z,99926.94
2022-10-01T09:48:56.427Z,99921.44
2022-10-01T09:54:06.209Z,99913.44
2022-10-01T09:59:17.710Z,99915.97
2022-10-01T10:04:23.508Z,99912.34
2022-10-01T10:09:31.896Z,99899.03
2022-10-01T10:14:37.221Z,99894.59
2022-10-01T10:19:41.297Z,99890.09
2022-10-01T10:24:45.411Z,99875.88
2022-10-01T10:29:48.200Z,99873.19
2022-10-01T10:34:52.173Z,99866.06
2022-10-01T10:39:57.101Z,99856.47
2022-10-01T10:45:04.342Z,99861.88
2022-10-01T10:50:22.492Z,99863.63
2022-10-01T10:55:31.937Z,99853.16
2022-10-01T11:00:44.177Z,99853.16
2022-10-01T11:05:51.463Z,99845.25
2022-10-01T11:11:08.948Z,99846.13
2022-10-01T11:16:31.431Z,99838.28
2022-10-01T11:21:56.767Z,99834.09
2022-10-01T11:27:07.440Z,99842.00
2022-10-01T11:32:19.364Z,99835.06
2022-10-01T11:37:36.342Z,99832.44
2022-10-01T11:42:44.092Z,99834.19
2022-10-01T11:47:52.793Z,99830.72
2022-10-01T11:53:00.019Z,99826.53
2022-10-01T11:58:30.949Z,99825.81
2022-10-01T12:03:43.953Z,99812.69
2022-10-01T12:08:54.874Z,99818.97
2022-10-01T12:14:04.430Z,99809.38
2022-10-01T12:19:14.998Z,99812.00
2022-10-01T12:24:21.555Z,99807.84
2022-10-01T12:29:36.270Z,99813.22
2022-10-01T12:34:54.061Z,99825.69
2022-10-01T12:40:19.614Z,99821.41
2022-10-01T12:45:33.609Z,99811.88
2022-10-01T12:50:48.217Z,99825.03
2022-10-01T12:56:07.405Z,99818.84
2022-10-01T13:01:20.939Z,99817.97
2022-10-01T13:06:35.671Z,99825.09
2022-10-01T13:11:58.160Z,99821.72
2022-10-01T13:17:10.442Z,99803.56
2022-10-01T13:22:19.728Z,99815.28
2022-10-01T13:27:29.824Z,99812.22
2022-10-01T13:32:35.807Z,99814.28
2022-10-01T13:37:40.695Z,99806.69
2022-10-01T13:42:47.487Z,99810.63
2022-10-01T13:47:51.828Z,99795.28
2022-10-01T13:53:06.703Z,99790.50
2022-10-01T13:58:24.009Z,99786.59
2022-10-01T14:03:52.322Z,99794.03
2022-10-01T14:09:01.338Z,99793.56
2022-10-01T14:14:30.080Z,99805.69
2022-10-01T14:19:34.230Z,99800.00
2022-10-01T14:24:48.907Z,99807.44
2022-10-01T14:30:03.357Z,99803.34
2022-10-01T14:35:29.428Z,99805.34
2022-10-01T14:40:38.698Z,99798.44
2022-10-01T14:45:51.613Z,99805.50
2022-10-01T14:50:58.309Z,99807.38
2022-10-01T14:56:04.989Z,99812.69
2022-10-01T15:01:08.390Z,99818.88
2022-10-01T15:06:14.919Z,99816.34
2022-10-01T15:11:21.238Z,99816.34
2022-10-01T15:16:26.024Z,99827.69
2022-10-01T15:21:37.542Z,99826.63
2022-10-01T15:26:40.426Z,99832.56
2022-10-01T15:31:44.616Z,99841.13
2022-10-01T15:36:50.347Z,99846.28
2022-10-01T15:41:54.800Z,99852.34
2022-10-01T15:47:28.375Z,99856.69
2022-10-01T15:52:53.024Z,99860.13
2022-10-01T15:57:57.846Z,99867.13
2022-10-01T16:03:01.361Z,99877.69
2022-10-01T16:08:06.457Z,99874.19
2022-10-01T16:13:31.040Z,99878.56
2022-10-01T16:18:34.826Z,99895.25
2022-10-01T16:23:43.009Z,99901.41
2022-10-01T16:28:46.409Z,99910.13
2022-10-01T16:33:49.150Z,99913.63
2022-10-01T16:38:53.627Z,99920.69
2022-10-01T16:43:59.079Z,99933.81
2022-10-01T16:49:01.787Z,99939.03
2022-10-01T16:54:07.701Z,99947.72
2022-10-01T16:59:10.749Z,99953.84
2022-10-01T17:04:14.516Z,99973.13
2022-10-01T17:09:18.602Z,99970.44
2022-10-01T17:14:22.181Z,99985.38
2022-10-01T17:19:25.759Z,99982.56
2022-10-01T17:24:29.982Z,100005.34
2022-10-01T17:29:33.646Z,100009.59
2022-10-01T17:34:36.700Z,100019.97
2022-10-01T17:39:42.199Z,100029.56
2022-10-01T17:44:45.448Z,100037.31
2022-10-01T17:49:48.184Z,100048.72
2022-10-01T17:54:52.421Z,100059.16
2022-10-01T17:59:55.119Z,100066.09
2022-10-01T18:04:57.870Z,100075.63
2022-10-01T18:10:02.077Z,100086.03
2022-10-01T18:15:05.252Z,100081.56
2022-10-01T18:20:08.670Z,100091.13
2022-10-01T18:25:13.906Z,100114.00
2022-10-01T18:30:17.350Z,100121.75
2022-10-01T18:35:26.513Z,100132.19
2022-10-01T18:40:35.145Z,100133.88
2022-10-01T18:45:52.330Z,100136.34
2022-10-01T18:51:06.703Z,100144.16
2022-10-01T18:56:23.795Z,100153.00
2022-10-01T19:01:37.605Z,100158.19
2022-10-01T19:06:52.791Z,100163.34
2022-10-01T19:12:05.802Z,100166.78
2022-10-01T19:17:19.919Z,100174.66
2022-10-01T19:22:31.888Z,100178.09
2022-10-01T19:27:50.885Z,100176.13
2022-10-01T19:33:00.297Z,100188.19
2022-10-01T19:38:07.642Z,100193.22
2022-10-01T19:43:19.533Z,100203.63
2022-10-01T19:48:28.765Z,100214.88
2022-10-01T19:53:37.328Z,100226.16
2022-10-01T19:58:41.566Z,100231.28
2022-10-01T20:03:52.053Z,100247.06
2022-10-01T20:08:59.342Z,100250.47
2022-10-01T20:14:40.252Z,100258.31
2022-10-01T20:19:51.783Z,100270.38
2022-10-01T20:25:04.429Z,100272.13
2022-10-01T20:30:12.177Z,100283.50
2022-10-01T20:35:26.218Z,100286.81
2022-10-01T20:40:33.302Z,100301.63
2022-10-01T20:45:40.310Z,100310.31
2022-10-01T20:50:45.822Z,100310.22
2022-10-01T20:55:54.534Z,100315.31
2022-10-01T21:01:05.306Z,100320.38
2022-10-01T21:06:13.046Z,100328.09
2022-10-01T21:11:23.119Z,100336.59
2022-10-01T21:17:01.990Z,100342.63
2022-10-01T21:22:17.096Z,100359.19
2022-10-01T21:27:35.025Z,100360.66
2022-10-01T21:33:01.388Z,100368.50
2022-10-01T21:38:12.708Z,100382.44
2022-10-01T21:43:30.373Z,100380.56
2022-10-01T21:48:45.451Z,100399.88
2022-10-01T21:54:04.061Z,100403.34
2022-10-01T21:59:14.771Z,100404.97
2022-10-01T22:04:27.194Z,100419.91
2022-10-01T22:09:39.765Z,100425.09
2022-10-01T22:14:45.361Z,100431.19
2022-10-01T22:19:52.247Z,100440.91
2022-10-01T22:24:56.046Z,100448.81
2022-10-01T22:30:02.923Z,100448.88
2022-10-01T22:35:14.086Z,100456.78
2022-10-01T22:40:22.467Z,100467.25
2022-10-01T22:45:33.437Z,100470.72
2022-10-01T22:50:50.213Z,100477.66
2022-10-01T22:55:55.274Z,100474.97
2022-10-01T23:01:09.325Z,100481.88
2022-10-01T23:06:26.113Z,100490.66
2022-10-01T23:11:36.644Z,100496.72
2022-10-01T23:16:46.892Z,100496.88
2022-10-01T23:21:58.872Z,100505.66
2022-10-01T23:27:14.170Z,100517.88
2022-10-01T23:32:29.799Z,100514.34
2022-10-01T23:37:51.077Z,100510.72
2022-10-01T23:43:00.507Z,100520.38
2022-10-01T23:48:09.565Z,100520.25
2022-10-01T23:53:17.669Z,100521.19
2022-10-01T23:58:23.771Z,100524.75
